createdAt,value
2018-04-02T00:01:58.805Z,58.20
2018-04-02T00:04:26.979Z,58.10
2018-04-02T00:06:55.139Z,58.10
2018-04-02T00:09:23.322Z,58.30
2018-04-02T00:11:51.505Z,58.90
2018-04-02T00:14:19.696Z,59.00
2018-04-02T00:16:47.851Z,59.00
2018-04-02T00:19:16.054Z,59.40
2018-04-02T00:21:44.223Z,59.60
2018-04-02T00:24:12.386Z,60.40
2018-04-02T00:26:40.559Z,60.60
2018-04-02T00:29:08.738Z,60.70
2018-04-02T00:31:36.914Z,61.30
2018-04-02T00:34:05.120Z,61.80
2018-04-02T00:36:33.302Z,61.90
2018-04-02T00:39:01.465Z,62.60
2018-04-02T00:41:30.423Z,63.20
2018-04-02T00:43:58.616Z,63.10
2018-04-02T00:46:26.779Z,63.50
2018-04-02T00:48:54.989Z,65.10
2018-04-02T00:51:23.921Z,67.70
2018-04-02T00:53:52.084Z,67.70
2018-04-02T00:56:20.243Z,67.10
2018-04-02T00:58:48.404Z,67.60
2018-04-02T01:01:16.581Z,69.00
2018-04-02T01:03:45.520Z,67.80
2018-04-02T01:06:13.712Z,67.80
2018-04-02T01:08:41.896Z,68.20
2018-04-02T01:11:10.063Z,68.40
2018-04-02T01:13:38.243Z,68.40
2018-04-02T01:16:06.408Z,70.30
2018-04-02T01:18:34.575Z,71.90
2018-04-02T01:21:02.743Z,71.60
2018-04-02T01:23:30.905Z,71.30
2018-04-02T01:25:59.093Z,71.80
2018-04-02T01:28:27.271Z,71.00
2018-04-02T01:30:55.447Z,73.60
2018-04-02T01:33:23.611Z,74.30
2018-04-02T01:35:52.102Z,74.40
2018-04-02T01:38:20.274Z,75.50
2018-04-02T01:40:49.225Z,76.70
2018-04-02T01:43:17.382Z,77.60
2018-04-02T01:45:46.321Z,77.30
2018-04-02T01:48:14.483Z,77.30
2018-04-02T01:50:42.699Z,76.20
2018-04-02T01:53:10.949Z,76.70
2018-04-02T01:55:39.126Z,76.40
2018-04-02T01:58:07.295Z,76.50
2018-04-02T02:00:35.469Z,76.60
2018-04-02T02:03:03.646Z,76.30
2018-04-02T02:05:31.806Z,76.30
2018-04-02T02:07:59.991Z,75.70
2018-04-02T02:10:28.165Z,75.90
2018-04-02T02:12:56.357Z,76.10
2018-04-02T02:15:24.522Z,76.10
2018-04-02T02:17:52.706Z,76.90
2018-04-02T02:20:20.883Z,76.70
2018-04-02T02:22:49.106Z,78.40
2018-04-02T02:25:17.262Z,79.90
2018-04-02T02:27:45.427Z,80.50
2018-04-02T02:30:13.606Z,81.10
2018-04-02T02:32:42.552Z,82.20
2018-04-02T02:35:10.720Z,82.80
2018-04-02T02:37:38.886Z,81.90
2018-04-02T02:40:07.048Z,81.90
2018-04-02T02:42:35.232Z,81.10
2018-04-02T02:45:03.421Z,80.50
2018-04-02T02:47:31.601Z,81.00
2018-04-02T02:49:59.772Z,81.30
2018-04-02T02:52:27.943Z,81.10
2018-04-02T02:54:56.118Z,81.50
2018-04-02T02:57:24.293Z,81.90
2018-04-02T02:59:52.460Z,82.60
2018-04-02T03:02:20.623Z,82.80
2018-04-02T03:04:48.800Z,82.50
2018-04-02T03:07:17.198Z,81.50
2018-04-02T03:09:45.353Z,81.10
2018-04-02T03:12:13.515Z,80.50
2018-04-02T03:14:41.686Z,80.70
2018-04-02T03:17:10.642Z,82.80
2018-04-02T03:19:38.834Z,82.80
2018-04-02T03:22:07.771Z,82.70
2018-04-02T03:24:35.933Z,83.30
2018-04-02T03:27:04.097Z,83.10
2018-04-02T03:29:32.267Z,83.60
2018-04-02T03:32:01.192Z,84.00
2018-04-02T03:34:29.364Z,84.00
2018-04-02T03:36:57.542Z,84.10
2018-04-02T03:39:25.714Z,84.50
2018-04-02T03:41:53.871Z,84.80
2018-04-02T03:44:22.062Z,85.00
2018-04-02T03:46:50.234Z,85.20
2018-04-02T03:49:18.393Z,85.30
2018-04-02T03:51:46.700Z,85.60
2018-04-02T03:54:14.865Z,85.50
2018-04-02T03:56:43.038Z,86.00
2018-04-02T03:59:11.203Z,85.90
2018-04-02T04:01:39.363Z,86.20
2018-04-02T04:04:07.533Z,86.60
2018-04-02T04:06:35.726Z,86.90
2018-04-02T04:09:03.950Z,87.80
2018-04-02T04:11:32.122Z,87.90
2018-04-02T04:14:00.306Z,87.70
2018-04-02T04:16:28.470Z,88.10
2018-04-02T04:18:56.637Z,88.60
2018-04-02T04:21:24.813Z,88.60
2018-04-02T04:23:52.970Z,88.60
2018-04-02T04:26:21.133Z,89.00
2018-04-02T04:28:49.295Z,89.40
2018-04-02T04:31:17.460Z,89.70
2018-04-02T04:33:45.665Z,90.00
2018-04-02T04:36:13.839Z,90.20
2018-04-02T04:38:41.993Z,90.50
2018-04-02T04:41:10.180Z,90.40
2018-04-02T04:43:38.342Z,90.30
2018-04-02T04:46:06.493Z,90.80
2018-04-02T04:48:35.524Z,91.00
2018-04-02T04:51:03.711Z,91.00
2018-04-02T04:53:32.657Z,91.40
2018-04-02T04:56:01.598Z,91.10
2018-04-02T04:58:29.782Z,91.10
2018-04-02T05:00:57.939Z,91.10
2018-04-02T05:03:26.126Z,91.10
2018-04-02T05:05:54.307Z,91.20
2018-04-02T05:08:22.477Z,91.00
2018-04-02T05:10:50.672Z,91.00
2018-04-02T05:13:18.850Z,90.60
2018-04-02T05:15:47.016Z,90.50
2018-04-02T05:18:15.177Z,90.50
2018-04-02T05:20:43.338Z,90.40
2018-04-02T05:23:11.510Z,90.80
2018-04-02T05:25:39.752Z,90.20
2018-04-02T05:28:07.893Z,89.80
2018-04-02T05:30:36.059Z,89.60
2018-04-02T05:33:04.230Z,89.40
2018-04-02T05:35:32.404Z,89.10
2018-04-02T05:38:00.574Z,89.10
2018-04-02T05:40:28.757Z,89.20
2018-04-02T05:42:56.923Z,88.70
2018-04-02T05:45:25.111Z,88.50
2018-04-02T05:47:53.277Z,87.90
2018-04-02T05:50:21.448Z,87.60
2018-04-02T05:52:49.611Z,87.60
2018-04-02T05:55:17.779Z,86.90
2018-04-02T05:57:45.956Z,87.00
2018-04-02T06:00:14.150Z,86.70
2018-04-02T06:02:42.311Z,86.10
2018-04-02T06:05:10.486Z,85.30
2018-04-02T06:07:38.650Z,85.10
2018-04-02T06:10:06.840Z,84.50
2018-04-02T06:12:35.022Z,84.40
2018-04-02T06:15:03.202Z,83.50
2018-04-02T06:17:31.409Z,83.40
2018-04-02T06:20:00.335Z,82.60
2018-04-02T06:22:28.569Z,82.50
2018-04-02T06:24:56.703Z,83.00
2018-04-02T06:27:24.880Z,82.50
2018-04-02T06:29:53.047Z,83.30
2018-04-02T06:32:21.214Z,81.70
2018-04-02T06:34:49.394Z,80.60
2018-04-02T06:37:17.567Z,80.30
2018-04-02T06:39:45.747Z,80.00
2018-04-02T06:42:13.931Z,80.10
2018-04-02T06:44:42.089Z,79.80
2018-04-02T06:47:10.263Z,79.30
2018-04-02T06:49:38.428Z,78.50
2018-04-02T06:52:06.589Z,78.50
2018-04-02T06:54:34.777Z,78.80
2018-04-02T06:57:02.946Z,77.70
2018-04-02T06:59:31.120Z,77.10
2018-04-02T07:01:59.298Z,76.80
2018-04-02T07:04:27.466Z,76.10
2018-04-02T07:06:55.631Z,75.20
2018-04-02T07:09:23.790Z,74.20
2018-04-02T07:11:52.726Z,71.00
2018-04-02T07:14:20.888Z,70.80
2018-04-02T07:16:49.072Z,69.40
2018-04-02T07:19:17.237Z,68.80
2018-04-02T07:21:45.391Z,67.30
2018-04-02T07:24:13.590Z,65.40
2018-04-02T07:26:41.762Z,64.60
2018-04-02T07:29:09.933Z,63.90
2018-04-02T07:31:38.091Z,63.50
2018-04-02T07:34:06.253Z,63.40
2018-04-02T07:36:35.188Z,64.10
2018-04-02T07:39:03.421Z,64.10
2018-04-02T07:41:32.347Z,62.70
2018-04-02T07:44:00.525Z,62.60
2018-04-02T07:46:28.695Z,61.40
2018-04-02T07:48:56.883Z,61.20
2018-04-02T07:51:25.077Z,60.30
2018-04-02T07:53:53.243Z,59.70
2018-04-02T07:56:22.213Z,57.30
2018-04-02T07:58:50.391Z,57.30
2018-04-02T08:01:18.570Z,57.70
2018-04-02T08:03:46.749Z,58.30
2018-04-02T08:06:14.947Z,56.90
2018-04-02T08:08:43.121Z,56.00
2018-04-02T08:11:11.306Z,54.70
2018-04-02T08:13:39.466Z,53.90
2018-04-02T08:16:07.711Z,53.30
2018-04-02T08:18:36.621Z,54.00
2018-04-02T08:21:04.785Z,54.00
2018-04-02T08:23:32.972Z,53.90
2018-04-02T08:26:01.917Z,53.80
2018-04-02T08:28:30.097Z,53.70
2018-04-02T08:30:58.284Z,53.30
2018-04-02T08:33:26.448Z,52.70
2018-04-02T08:35:54.641Z,53.00
2018-04-02T08:38:22.806Z,53.10
2018-04-02T08:40:50.990Z,53.00
2018-04-02T08:43:19.196Z,52.90
2018-04-02T08:45:48.131Z,53.70
2018-04-02T08:48:17.064Z,54.30
2018-04-02T08:50:45.226Z,54.20
2018-04-02T08:53:13.400Z,53.90
2018-04-02T08:55:41.583Z,52.50
2018-04-02T08:58:09.751Z,51.30
2018-04-02T09:00:37.938Z,50.70
2018-04-02T09:03:06.131Z,49.60
2018-04-02T09:05:34.297Z,49.90
2018-04-02T09:08:02.471Z,48.40
2018-04-02T09:10:30.644Z,48.00
2018-04-02T09:12:58.817Z,48.10
2018-04-02T09:15:27.013Z,45.50
2018-04-02T09:17:55.978Z,43.30
2018-04-02T09:20:24.150Z,43.10
2018-04-02T09:22:52.343Z,44.20
2018-04-02T09:25:20.517Z,45.40
2018-04-02T09:27:48.701Z,44.10
2018-04-02T09:30:16.865Z,42.20
2018-04-02T09:32:45.061Z,42.20
2018-04-02T09:35:14.005Z,41.30
2018-04-02T09:37:42.243Z,41.30
2018-04-02T09:40:11.182Z,40.00
2018-04-02T09:42:39.374Z,39.90
2018-04-02T09:45:07.579Z,40.30
2018-04-02T09:47:36.522Z,40.10
2018-04-02T09:50:04.698Z,40.10
2018-04-02T09:52:32.873Z,39.00
2018-04-02T09:55:01.047Z,38.20
2018-04-02T09:57:29.222Z,38.20
2018-04-02T09:59:57.401Z,38.70
2018-04-02T10:02:25.591Z,36.60
2018-04-02T10:04:56.665Z,36.90
2018-04-02T10:07:24.746Z,36.30
2018-04-02T10:09:53.733Z,38.00
2018-04-02T10:12:21.899Z,37.90
2018-04-02T10:14:50.847Z,36.50
2018-04-02T10:17:19.020Z,36.50
2018-04-02T10:19:47.212Z,36.10
2018-04-02T10:22:15.397Z,35.80
2018-04-02T10:24:43.581Z,35.50
2018-04-02T10:27:11.746Z,36.00
2018-04-02T10:29:39.973Z,34.30
2018-04-02T10:32:08.920Z,33.10
2018-04-02T10:34:37.084Z,32.50
2018-04-02T10:37:05.327Z,33.70
2018-04-02T10:39:33.495Z,33.10
2018-04-02T10:42:01.673Z,32.40
2018-04-02T10:44:29.858Z,32.70
2018-04-02T10:46:58.031Z,33.30
2018-04-02T10:49:26.213Z,31.60
2018-04-02T10:51:54.398Z,32.10
2018-04-02T10:54:22.585Z,31.20
2018-04-02T10:56:50.753Z,30.60
2018-04-02T10:59:18.930Z,30.70
2018-04-02T11:01:47.115Z,30.90
2018-04-02T11:04:15.292Z,30.30
2018-04-02T11:06:43.459Z,29.70
2018-04-02T11:09:11.642Z,29.90
2018-04-02T11:11:39.811Z,29.90
2018-04-02T11:14:07.984Z,29.60
2018-04-02T11:16:36.194Z,29.10
2018-04-02T11:19:05.136Z,28.20
2018-04-02T11:21:33.309Z,28.10
2018-04-02T11:24:01.490Z,27.90
2018-04-02T11:26:29.735Z,27.10
2018-04-02T11:28:57.961Z,27.30
2018-04-02T11:31:26.118Z,27.60
2018-04-02T11:33:54.305Z,26.90
2018-04-02T11:36:22.491Z,26.80
2018-04-02T11:38:51.432Z,26.90
2018-04-02T11:41:19.611Z,26.90
2018-04-02T11:43:47.782Z,27.10
2018-04-02T11:46:16.750Z,26.40
2018-04-02T11:48:44.965Z,27.00
2018-04-02T11:51:13.135Z,26.10
2018-04-02T11:53:41.299Z,25.70
2018-04-02T11:56:09.499Z,25.30
2018-04-02T11:58:37.671Z,24.90
2018-04-02T12:01:05.862Z,24.70
2018-04-02T12:03:34.066Z,25.60
2018-04-02T12:06:03.018Z,25.60
2018-04-02T12:08:31.191Z,25.50
2018-04-02T12:10:59.383Z,24.80
2018-04-02T12:13:27.554Z,23.30
2018-04-02T12:15:55.731Z,21.80
2018-04-02T12:18:23.910Z,20.80
2018-04-02T12:20:52.115Z,19.00
2018-04-02T12:23:21.040Z,17.70
2018-04-02T12:25:49.231Z,17.60
2018-04-02T12:28:17.417Z,17.40
2018-04-02T12:30:45.617Z,16.30
2018-04-02T12:33:14.580Z,15.80
2018-04-02T12:35:42.757Z,15.80
2018-04-02T12:38:11.730Z,15.50
2018-04-02T12:40:39.926Z,15.40
2018-04-02T12:43:08.123Z,15.10
2018-04-02T12:45:37.071Z,14.60
2018-04-02T12:48:05.243Z,14.60
2018-04-02T12:50:33.421Z,14.20
2018-04-02T12:53:01.733Z,14.20
2018-04-02T12:55:30.679Z,14.30
2018-04-02T12:57:58.856Z,14.30
2018-04-02T13:00:27.034Z,14.20
2018-04-02T13:02:55.204Z,14.10
2018-04-02T13:05:23.376Z,14.00
2018-04-02T13:07:51.562Z,14.30
2018-04-02T13:10:19.747Z,14.40
2018-04-02T13:12:47.932Z,14.40
2018-04-02T13:15:16.111Z,13.80
2018-04-02T13:17:44.286Z,13.80
2018-04-02T13:20:12.460Z,14.10
2018-04-02T13:22:40.646Z,13.80
2018-04-02T13:25:08.823Z,13.80
2018-04-02T13:27:36.990Z,13.70
2018-04-02T13:30:05.162Z,13.50
2018-04-02T13:32:33.373Z,13.30
2018-04-02T13:35:01.557Z,13.90
2018-04-02T13:37:29.723Z,14.00
2018-04-02T13:39:57.894Z,14.30
2018-04-02T13:42:26.067Z,13.90
2018-04-02T13:44:54.998Z,13.80
2018-04-02T13:47:23.209Z,13.80
2018-04-02T13:49:51.376Z,13.40
2018-04-02T13:52:19.556Z,12.80
2018-04-02T13:54:47.770Z,12.90
2018-04-02T13:57:15.945Z,12.40
2018-04-02T13:59:44.113Z,12.70
2018-04-02T14:02:12.283Z,12.50
2018-04-02T14:04:41.240Z,12.20
2018-04-02T14:07:09.427Z,12.20
2018-04-02T14:09:38.404Z,12.20
2018-04-02T14:12:06.572Z,12.20
2018-04-02T14:14:34.748Z,12.40
2018-04-02T14:17:02.940Z,12.40
2018-04-02T14:19:31.227Z,12.40
2018-04-02T14:22:00.170Z,13.20
2018-04-02T14:24:28.341Z,13.10
2018-04-02T14:26:56.518Z,13.40
2018-04-02T14:29:24.709Z,13.10
2018-04-02T14:31:52.898Z,13.50
2018-04-02T14:34:21.072Z,13.40
2018-04-02T14:36:49.261Z,13.50
2018-04-02T14:39:17.432Z,13.20
2018-04-02T14:41:45.598Z,13.10
2018-04-02T14:44:13.790Z,13.20
2018-04-02T14:46:42.725Z,13.60
2018-04-02T14:49:10.903Z,13.60
2018-04-02T14:51:39.079Z,13.80
2018-04-02T14:54:07.265Z,13.60
2018-04-02T14:56:35.439Z,13.70
2018-04-02T14:59:03.600Z,13.40
2018-04-02T15:01:31.769Z,13.60
2018-04-02T15:03:59.967Z,14.20
2018-04-02T15:06:28.142Z,14.20
2018-04-02T15:08:56.311Z,14.20
2018-04-02T15:11:24.500Z,14.10
2018-04-02T15:13:52.673Z,14.80
2018-04-02T15:16:20.861Z,15.10
2018-04-02T15:18:49.048Z,15.20
2018-04-02T15:21:18.090Z,15.00
2018-04-02T15:23:46.263Z,14.90
2018-04-02T15:26:14.433Z,15.10
2018-04-02T15:28:42.601Z,15.40
2018-04-02T15:31:10.769Z,15.80
2018-04-02T15:33:38.940Z,15.70
2018-04-02T15:36:07.981Z,16.00
2018-04-02T15:38:36.159Z,16.10
2018-04-02T15:41:04.346Z,16.40
2018-04-02T15:43:32.564Z,16.50
2018-04-02T15:46:00.762Z,17.00
2018-04-02T15:48:28.945Z,17.30
2018-04-02T15:50:57.157Z,17.70
2018-04-02T15:53:25.316Z,17.40
2018-04-02T15:55:53.481Z,18.20
2018-04-02T15:58:21.650Z,18.50
2018-04-02T16:00:49.832Z,18.60
2018-04-02T16:03:18.006Z,18.80
2018-04-02T16:05:46.172Z,18.90
2018-04-02T16:08:14.357Z,19.50
2018-04-02T16:10:42.702Z,19.60
2018-04-02T16:13:11.626Z,20.00
2018-04-02T16:15:39.814Z,20.40
2018-04-02T16:18:07.991Z,20.40
2018-04-02T16:20:36.178Z,21.00
2018-04-02T16:23:05.130Z,21.80
2018-04-02T16:25:33.329Z,21.70
2018-04-02T16:28:01.522Z,22.30
2018-04-02T16:30:30.459Z,23.20
2018-04-02T16:32:58.688Z,23.10
2018-04-02T16:35:27.784Z,23.10
2018-04-02T16:37:56.948Z,23.70
2018-04-02T16:40:25.150Z,23.60
2018-04-02T16:42:53.326Z,24.40
2018-04-02T16:45:21.505Z,24.80
2018-04-02T16:47:50.454Z,25.00
2018-04-02T16:50:18.677Z,25.00
2018-04-02T16:52:47.619Z,25.50
2018-04-02T16:55:15.785Z,25.40
2018-04-02T16:57:43.973Z,25.80
2018-04-02T17:00:12.151Z,24.90
2018-04-02T17:02:40.321Z,25.80
2018-04-02T17:05:08.522Z,25.80
2018-04-02T17:07:36.700Z,25.80
2018-04-02T17:10:04.878Z,26.20
2018-04-02T17:12:33.852Z,26.90
2018-04-02T17:15:02.018Z,26.80
2018-04-02T17:17:30.232Z,27.70
2018-04-02T17:19:59.202Z,28.20
2018-04-02T17:22:27.372Z,28.20
2018-04-02T17:24:55.562Z,29.30
2018-04-02T17:27:23.759Z,30.10
2018-04-02T17:29:52.727Z,31.90
2018-04-02T17:32:20.902Z,31.80
2018-04-02T17:34:50.147Z,31.20
2018-04-02T17:37:18.361Z,32.20
2018-04-02T17:39:46.542Z,31.90
2018-04-02T17:42:14.733Z,31.00
2018-04-02T17:44:42.926Z,31.60
2018-04-02T17:47:11.871Z,33.00
2018-04-02T17:49:40.087Z,32.90
2018-04-02T17:52:09.035Z,33.60
2018-04-02T17:54:37.259Z,33.50
2018-04-02T17:57:06.219Z,34.90
2018-04-02T17:59:34.432Z,34.90
2018-04-02T18:02:03.383Z,36.10
2018-04-02T18:04:31.567Z,36.10
2018-04-02T18:06:59.819Z,36.50
2018-04-02T18:09:28.272Z,37.20
2018-04-02T18:11:56.465Z,37.80
2018-04-02T18:14:24.655Z,38.00
2018-04-02T18:16:52.851Z,38.60
2018-04-02T18:19:21.042Z,38.80
2018-04-02T18:21:49.253Z,39.60
2018-04-02T18:24:17.429Z,40.20
2018-04-02T18:26:45.598Z,40.90
2018-04-02T18:29:13.767Z,41.40
2018-04-02T18:31:41.944Z,41.50
2018-04-02T18:34:10.209Z,42.10
2018-04-02T18:36:39.173Z,42.40
2018-04-02T18:39:07.363Z,42.40
2018-04-02T18:41:36.326Z,42.90
2018-04-02T18:44:04.507Z,42.80
2018-04-02T18:46:32.721Z,43.10
2018-04-02T18:49:01.688Z,44.10
2018-04-02T18:51:29.871Z,44.00
2018-04-02T18:53:58.047Z,44.40
2018-04-02T18:56:27.004Z,45.00
2018-04-02T18:58:55.178Z,44.90
2018-04-02T19:01:23.353Z,45.30
2018-04-02T19:03:51.538Z,45.90
2018-04-02T19:06:19.716Z,46.30
2018-04-02T19:08:47.917Z,46.60
2018-04-02T19:11:16.858Z,47.70
2018-04-02T19:13:45.224Z,47.00
2018-04-02T19:16:13.420Z,47.20
2018-04-02T19:18:41.598Z,46.70
2018-04-02T19:21:09.767Z,46.60
2018-04-02T19:23:37.963Z,46.80
2018-04-02T19:26:06.130Z,47.00
2018-04-02T19:28:34.375Z,46.70
2018-04-02T19:31:02.563Z,46.80
2018-04-02T19:33:30.742Z,47.10
2018-04-02T19:35:58.927Z,47.40
2018-04-02T19:38:27.130Z,47.80
2018-04-02T19:40:55.338Z,48.30
2018-04-02T19:43:23.603Z,48.60
2018-04-02T19:45:53.370Z,49.10
2018-04-02T19:48:21.546Z,49.00
2018-04-02T19:50:49.717Z,49.50
2018-04-02T19:53:17.923Z,50.00
2018-04-02T19:55:46.864Z,50.80
2018-04-02T19:58:15.047Z,50.70
2018-04-02T20:00:43.233Z,51.20
2018-04-02T20:03:11.414Z,51.90
2018-04-02T20:05:39.602Z,52.30
2018-04-02T20:08:07.802Z,53.00
2018-04-02T20:10:36.027Z,53.30
2018-04-02T20:13:04.216Z,53.90
2018-04-02T20:15:32.414Z,53.90
2018-04-02T20:18:01.369Z,54.00
2018-04-02T20:20:32.267Z,54.00
2018-04-02T20:23:00.500Z,53.90
2018-04-02T20:25:28.677Z,54.40
2018-04-02T20:27:56.853Z,54.60
2018-04-02T20:30:25.089Z,54.40
2018-04-02T20:32:53.286Z,55.10
2018-04-02T20:35:21.472Z,56.10
2018-04-02T20:37:49.664Z,56.70
2018-04-02T20:40:17.863Z,55.60
2018-04-02T20:42:46.813Z,55.70
2018-04-02T20:45:15.012Z,55.70
2018-04-02T20:47:43.967Z,58.10
2018-04-02T20:50:12.164Z,57.60
2018-04-02T20:52:40.388Z,57.90
2018-04-02T20:55:08.580Z,58.10
2018-04-02T20:57:36.761Z,57.80
2018-04-02T21:00:04.961Z,58.00
2018-04-02T21:02:33.172Z,58.60
2018-04-02T21:05:02.120Z,59.30
2018-04-02T21:07:30.295Z,59.30
2018-04-02T21:09:58.488Z,59.10
2018-04-02T21:12:26.681Z,58.70
2018-04-02T21:14:55.631Z,59.20
2018-04-02T21:17:23.830Z,59.20
2018-04-02T21:19:52.794Z,59.60
2018-04-02T21:22:20.968Z,59.50
2018-04-02T21:24:49.143Z,59.80
2018-04-02T21:27:17.314Z,59.90
2018-04-02T21:29:45.490Z,60.10
2018-04-02T21:32:13.662Z,60.90
2018-04-02T21:34:41.844Z,61.00
2018-04-02T21:37:10.059Z,61.30
2018-04-02T21:39:39.000Z,63.00
2018-04-02T21:42:07.188Z,62.80
2018-04-02T21:44:35.361Z,61.30
2018-04-02T21:47:03.534Z,60.50
2018-04-02T21:49:31.707Z,60.80
2018-04-02T21:51:59.872Z,61.20
2018-04-02T21:54:28.049Z,61.10
2018-04-02T21:56:56.239Z,61.70
2018-04-02T21:59:25.181Z,61.60
2018-04-02T22:01:54.140Z,61.00
2018-04-02T22:04:22.322Z,60.90
2018-04-02T22:07:04.230Z,60.90
2018-04-02T22:09:33.252Z,61.10
2018-04-02T22:12:01.424Z,60.20
2018-04-02T22:14:29.629Z,60.90
2018-04-02T22:16:57.823Z,62.00
2018-04-02T22:19:25.998Z,61.40
2018-04-02T22:21:54.190Z,61.10
2018-04-02T22:24:22.363Z,61.00
2018-04-02T22:26:50.542Z,60.90
2018-04-02T22:29:18.722Z,60.90
2018-04-02T22:31:46.911Z,59.90
2018-04-02T22:34:15.865Z,59.40
2018-04-02T22:36:44.054Z,59.40
2018-04-02T22:39:12.248Z,59.30
2018-04-02T22:41:41.216Z,59.10
2018-04-02T22:44:09.392Z,59.70
2018-04-02T22:46:37.574Z,58.40
2018-04-02T22:49:05.755Z,58.30
2018-04-02T22:51:34.706Z,58.20
2018-04-02T22:54:02.882Z,58.10
2018-04-02T22:56:31.048Z,58.40
2018-04-02T22:58:59.224Z,58.80
2018-04-02T23:01:27.401Z,58.60
2018-04-02T23:03:55.592Z,58.30
2018-04-02T23:06:23.810Z,58.30
2018-04-02T23:08:52.772Z,56.70
2018-04-02T23:11:20.943Z,56.70
2018-04-02T23:13:49.118Z,56.80
2018-04-02T23:16:17.310Z,56.50
2018-04-02T23:18:46.257Z,55.90
2018-04-02T23:21:14.443Z,55.80
2018-04-02T23:23:42.621Z,56.20
2018-04-02T23:26:10.832Z,56.90
2018-04-02T23:28:39.775Z,57.30
2018-04-02T23:31:07.945Z,57.30
2018-04-02T23:33:36.205Z,57.30
2018-04-02T23:36:04.340Z,57.60
2018-04-02T23:38:32.515Z,57.60
2018-04-02T23:41:00.688Z,58.10
2018-04-02T23:43:29.643Z,58.20
2018-04-02T23:45:57.818Z,58.10
2018-04-02T23:48:25.992Z,57.80
2018-04-02T23:50:54.297Z,57.90
2018-04-02T23:53:22.481Z,58.40
2018-04-02T23:55:50.663Z,58.50
2018-04-02T23:58:19.613Z,58.50
